createdAt,value
2018-07-20T00:01:39.265Z,56.83
2018-07-20T00:04:07.266Z,57.10
2018-07-20T00:06:35.305Z,56.12
2018-07-20T00:09:04.153Z,55.75
2018-07-20T00:11:32.137Z,56.72
2018-07-20T00:14:00.176Z,56.71
2018-07-20T00:16:28.821Z,56.80
2018-07-20T00:18:56.841Z,57.65
2018-07-20T00:21:24.827Z,56.88
2018-07-20T00:23:54.010Z,56.88
2018-07-20T00:26:21.984Z,58.27
2018-07-20T00:28:50.428Z,59.36
2018-07-20T00:31:18.711Z,59.21
2018-07-20T00:33:46.705Z,59.70
2018-07-20T00:36:14.713Z,59.32
2018-07-20T00:38:42.714Z,60.12
2018-07-20T00:41:10.733Z,59.53
2018-07-20T00:43:38.693Z,60.64
2018-07-20T00:46:06.740Z,60.57
2018-07-20T00:48:34.748Z,61.02
2018-07-20T00:51:02.750Z,61.01
2018-07-20T00:53:30.825Z,60.53
2018-07-20T00:55:58.876Z,60.85
2018-07-20T00:58:27.102Z,60.92
2018-07-20T01:00:55.108Z,61.19
2018-07-20T01:03:23.130Z,60.40
2018-07-20T01:05:51.136Z,59.80
2018-07-20T01:08:19.140Z,59.42
2018-07-20T01:10:47.133Z,58.91
2018-07-20T01:13:15.253Z,58.65
2018-07-20T01:15:43.252Z,59.54
2018-07-20T01:18:11.252Z,60.65
2018-07-20T01:20:39.232Z,61.01
2018-07-20T01:23:07.221Z,61.37
2018-07-20T01:25:35.250Z,61.55
2018-07-20T01:28:03.244Z,60.91
2018-07-20T01:30:31.257Z,60.93
2018-07-20T01:32:59.338Z,60.69
2018-07-20T01:35:27.343Z,59.44
2018-07-20T01:37:55.348Z,58.91
2018-07-20T01:40:23.340Z,58.97
2018-07-20T01:42:51.356Z,59.23
2018-07-20T01:45:19.388Z,58.81
2018-07-20T01:47:47.390Z,59.90
2018-07-20T01:50:15.567Z,60.00
2018-07-20T01:52:43.544Z,60.53
2018-07-20T01:55:11.564Z,60.91
2018-07-20T01:57:39.581Z,61.46
2018-07-20T02:00:07.709Z,61.66
2018-07-20T02:02:35.711Z,62.30
2018-07-20T02:05:03.718Z,63.10
2018-07-20T02:07:31.718Z,62.76
2018-07-20T02:09:59.725Z,61.76
2018-07-20T02:12:27.820Z,62.78
2018-07-20T02:14:55.816Z,62.13
2018-07-20T02:17:23.824Z,64.09
2018-07-20T02:19:51.817Z,63.56
2018-07-20T02:22:19.817Z,63.16
2018-07-20T02:24:47.817Z,63.41
2018-07-20T02:27:15.808Z,64.08
2018-07-20T02:29:43.797Z,64.07
2018-07-20T02:32:11.776Z,63.64
2018-07-20T02:34:39.915Z,62.89
2018-07-20T02:37:07.900Z,62.32
2018-07-20T02:39:35.928Z,62.59
2018-07-20T02:42:03.994Z,62.83
2018-07-20T02:44:32.061Z,62.80
2018-07-20T02:47:00.118Z,62.30
2018-07-20T02:49:28.102Z,62.97
2018-07-20T02:51:56.091Z,62.60
2018-07-20T02:54:24.076Z,62.43
2018-07-20T02:56:52.060Z,61.73
2018-07-20T02:59:20.540Z,62.58
2018-07-20T03:01:48.522Z,61.43
2018-07-20T03:04:16.525Z,61.22
2018-07-20T03:06:44.596Z,61.45
2018-07-20T03:09:13.640Z,61.18
2018-07-20T03:11:42.441Z,62.85
2018-07-20T03:14:10.497Z,62.06
2018-07-20T03:16:38.684Z,62.78
2018-07-20T03:19:07.991Z,62.55
2018-07-20T03:21:36.062Z,62.84
2018-07-20T03:24:04.018Z,62.95
2018-07-20T03:26:32.205Z,62.80
2018-07-20T03:29:00.189Z,62.54
2018-07-20T03:31:28.229Z,61.98
2018-07-20T03:33:56.245Z,61.41
2018-07-20T03:36:24.263Z,60.50
2018-07-20T03:38:52.249Z,61.46
2018-07-20T03:41:20.228Z,60.91
2018-07-20T03:43:48.227Z,60.04
2018-07-20T03:46:16.213Z,60.21
2018-07-20T03:48:44.196Z,60.92
2018-07-20T03:51:12.199Z,60.55
2018-07-20T03:53:40.189Z,60.99
2018-07-20T03:56:08.324Z,60.68
2018-07-20T03:58:36.324Z,61.04
2018-07-20T04:01:04.325Z,60.39
2018-07-20T04:03:32.312Z,59.86
2018-07-20T04:06:00.310Z,59.88
2018-07-20T04:08:28.300Z,59.78
2018-07-20T04:10:57.360Z,59.83
2018-07-20T04:13:25.348Z,61.41
2018-07-20T04:15:53.369Z,61.27
2018-07-20T04:18:21.343Z,60.84
2018-07-20T04:20:49.336Z,61.18
2018-07-20T04:23:17.503Z,62.04
2018-07-20T04:25:45.540Z,61.79
2018-07-20T04:28:13.586Z,63.08
2018-07-20T04:30:41.580Z,63.54
2018-07-20T04:33:09.580Z,63.96
2018-07-20T04:35:37.589Z,63.56
2018-07-20T04:38:05.576Z,63.83
2018-07-20T04:40:33.569Z,62.54
2018-07-20T04:43:01.576Z,62.15
2018-07-20T04:45:29.560Z,62.01
2018-07-20T04:47:57.576Z,61.24
2018-07-20T04:50:25.576Z,60.65
2018-07-20T04:52:53.569Z,60.56
2018-07-20T04:55:21.568Z,59.79
2018-07-20T04:57:49.570Z,60.06
2018-07-20T05:00:17.553Z,60.57
2018-07-20T05:02:45.601Z,60.27
2018-07-20T05:05:13.596Z,60.51
2018-07-20T05:07:41.617Z,59.62
2018-07-20T05:10:09.609Z,59.57
2018-07-20T05:12:37.614Z,59.89
2018-07-20T05:15:05.601Z,59.95
2018-07-20T05:17:33.615Z,59.59
2018-07-20T05:20:01.881Z,60.11
2018-07-20T05:22:29.944Z,60.19
2018-07-20T05:24:58.036Z,59.10
2018-07-20T05:27:26.052Z,59.13
2018-07-20T05:29:54.057Z,59.17
2018-07-20T05:32:22.089Z,60.15
2018-07-20T05:34:50.173Z,59.21
2018-07-20T05:37:18.167Z,60.26
2018-07-20T05:39:46.320Z,59.58
2018-07-20T05:42:14.314Z,60.27
2018-07-20T05:44:42.313Z,59.52
2018-07-20T05:47:10.928Z,59.57
2018-07-20T05:49:38.940Z,58.93
2018-07-20T05:52:06.947Z,58.37
2018-07-20T05:54:34.932Z,59.14
2018-07-20T05:57:02.925Z,57.59
2018-07-20T05:59:30.913Z,57.90
2018-07-20T06:01:58.914Z,57.39
2018-07-20T06:04:26.920Z,57.96
2018-07-20T06:06:55.039Z,56.77
2018-07-20T06:09:23.086Z,57.47
2018-07-20T06:11:51.106Z,56.19
2018-07-20T06:14:19.193Z,56.80
2018-07-20T06:16:47.214Z,55.70
2018-07-20T06:19:15.218Z,56.88
2018-07-20T06:21:43.289Z,56.28
2018-07-20T06:24:11.281Z,56.36
2018-07-20T06:26:39.284Z,56.30
2018-07-20T06:29:07.286Z,56.59
2018-07-20T06:31:35.337Z,56.11
2018-07-20T06:34:03.344Z,55.50
2018-07-20T06:36:31.376Z,53.84
2018-07-20T06:38:59.410Z,54.07
2018-07-20T06:41:27.432Z,54.09
2018-07-20T06:43:55.472Z,53.66
2018-07-20T06:46:23.544Z,53.08
2018-07-20T06:48:51.548Z,53.66
2018-07-20T06:51:19.593Z,52.79
2018-07-20T06:53:47.596Z,52.07
2018-07-20T06:56:15.612Z,52.61
2018-07-20T06:58:43.736Z,51.77
2018-07-20T07:01:11.721Z,51.14
2018-07-20T07:03:39.887Z,51.11
2018-07-20T07:06:07.932Z,50.13
2018-07-20T07:08:35.941Z,50.51
2018-07-20T07:11:03.956Z,50.81
2018-07-20T07:13:32.152Z,48.48
2018-07-20T07:16:00.422Z,49.00
2018-07-20T07:18:28.465Z,49.72
2018-07-20T07:20:56.576Z,48.65
2018-07-20T07:23:24.661Z,48.30
2018-07-20T07:25:53.125Z,45.46
2018-07-20T07:28:21.080Z,44.32
2018-07-20T07:30:49.172Z,44.05
2018-07-20T07:33:17.221Z,43.17
2018-07-20T07:35:45.232Z,43.12
2018-07-20T07:38:13.228Z,41.51
2018-07-20T07:40:41.242Z,42.30
2018-07-20T07:43:09.323Z,43.38
2018-07-20T07:45:37.322Z,44.61
2018-07-20T07:48:05.348Z,45.18
2018-07-20T07:50:33.408Z,45.02
2018-07-20T07:53:01.430Z,44.88
2018-07-20T07:55:29.436Z,44.68
2018-07-20T07:57:57.444Z,41.59
2018-07-20T08:00:25.480Z,40.77
2018-07-20T08:02:53.520Z,40.31
2018-07-20T08:05:21.543Z,40.50
2018-07-20T08:07:49.548Z,40.52
2018-07-20T08:10:17.609Z,40.41
2018-07-20T08:12:45.573Z,40.21
2018-07-20T08:15:13.573Z,40.25
2018-07-20T08:17:41.592Z,38.98
2018-07-20T08:20:09.620Z,40.20
2018-07-20T08:22:37.672Z,39.57
2018-07-20T08:25:05.688Z,40.25
2018-07-20T08:27:33.716Z,42.20
2018-07-20T08:30:01.784Z,40.61
2018-07-20T08:32:29.797Z,40.41
2018-07-20T08:34:57.842Z,40.08
2018-07-20T08:37:25.948Z,40.76
2018-07-20T08:39:54.099Z,39.77
2018-07-20T08:42:22.104Z,40.14
2018-07-20T08:44:50.132Z,38.90
2018-07-20T08:47:18.201Z,40.60
2018-07-20T08:49:46.259Z,38.86
2018-07-20T08:52:14.341Z,39.30
2018-07-20T08:54:42.368Z,38.83
2018-07-20T08:57:10.817Z,38.50
2018-07-20T08:59:39.128Z,36.60
2018-07-20T09:02:07.415Z,37.10
2018-07-20T09:04:35.801Z,36.41
2018-07-20T09:07:04.049Z,35.91
2018-07-20T09:09:32.235Z,36.00
2018-07-20T09:12:00.242Z,35.12
2018-07-20T09:14:29.528Z,34.51
2018-07-20T09:16:57.773Z,34.64
2018-07-20T09:19:25.852Z,35.19
2018-07-20T09:21:54.061Z,35.30
2018-07-20T09:24:22.397Z,35.77
2018-07-20T09:26:51.654Z,35.32
2018-07-20T09:29:19.888Z,34.29
2018-07-20T09:31:47.993Z,34.67
2018-07-20T09:34:16.285Z,33.63
2018-07-20T09:36:44.648Z,33.62
2018-07-20T09:39:13.065Z,32.49
2018-07-20T09:41:41.233Z,32.49
2018-07-20T09:44:10.176Z,32.07
2018-07-20T09:46:38.460Z,33.24
2018-07-20T09:49:06.762Z,32.25
2018-07-20T09:51:35.555Z,32.69
2018-07-20T09:54:03.617Z,31.18
2018-07-20T09:56:31.660Z,31.59
2018-07-20T09:58:59.710Z,31.22
2018-07-20T10:01:27.714Z,31.63
2018-07-20T10:03:55.759Z,32.38
2018-07-20T10:06:23.756Z,31.38
2018-07-20T10:08:51.800Z,32.30
2018-07-20T10:11:19.855Z,32.77
2018-07-20T10:13:47.876Z,33.34
2018-07-20T10:16:15.940Z,32.19
2018-07-20T10:18:43.994Z,34.11
2018-07-20T10:21:12.105Z,33.18
2018-07-20T10:23:40.193Z,34.17
2018-07-20T10:26:09.118Z,32.87
2018-07-20T10:28:37.429Z,34.45
2018-07-20T10:31:05.676Z,34.23
2018-07-20T10:33:33.976Z,33.04
2018-07-20T10:36:02.241Z,32.27
2018-07-20T10:38:30.353Z,32.77
2018-07-20T10:40:58.631Z,32.29
2018-07-20T10:43:26.824Z,31.71
2018-07-20T10:45:54.874Z,31.80
2018-07-20T10:48:23.280Z,32.84
2018-07-20T10:50:51.417Z,32.72
2018-07-20T10:53:19.570Z,33.63
2018-07-20T10:55:47.593Z,31.77
2018-07-20T10:58:15.694Z,31.82
2018-07-20T11:00:50.302Z,31.40
2018-07-20T11:03:18.553Z,31.50
2018-07-20T11:05:46.684Z,31.37
2018-07-20T11:08:14.832Z,31.80
2018-07-20T11:10:43.032Z,33.04
2018-07-20T11:13:11.295Z,32.38
2018-07-20T11:15:39.314Z,32.75
2018-07-20T11:18:08.474Z,30.99
2018-07-20T11:20:36.457Z,31.62
2018-07-20T11:23:04.648Z,30.20
2018-07-20T11:25:32.668Z,30.90
2018-07-20T11:28:00.768Z,29.67
2018-07-20T11:30:28.876Z,31.02
2018-07-20T11:32:57.397Z,29.21
2018-07-20T11:35:25.459Z,31.03
2018-07-20T11:37:53.490Z,31.06
2018-07-20T11:40:21.481Z,29.13
2018-07-20T11:42:49.546Z,29.78
2018-07-20T11:45:17.576Z,27.83
2018-07-20T11:47:45.624Z,27.72
2018-07-20T11:50:13.677Z,28.81
2018-07-20T11:52:41.689Z,28.96
2018-07-20T11:55:09.777Z,29.24
2018-07-20T11:57:37.819Z,28.94
2018-07-20T12:00:05.845Z,29.08
2018-07-20T12:02:33.911Z,29.25
2018-07-20T12:05:01.912Z,31.12
2018-07-20T12:07:30.088Z,29.78
2018-07-20T12:09:58.108Z,28.56
2018-07-20T12:12:26.145Z,28.36
2018-07-20T12:14:54.196Z,29.01
2018-07-20T12:17:22.243Z,27.52
2018-07-20T12:19:50.283Z,28.30
2018-07-20T12:22:18.409Z,27.89
2018-07-20T12:24:46.688Z,28.80
2018-07-20T12:27:14.949Z,29.06
2018-07-20T12:29:43.152Z,29.24
2018-07-20T12:32:11.350Z,30.36
2018-07-20T12:34:39.663Z,27.57
2018-07-20T12:37:08.010Z,28.84
2018-07-20T12:39:36.090Z,28.89
2018-07-20T12:42:04.356Z,28.71
2018-07-20T12:44:32.520Z,28.51
2018-07-20T12:47:01.677Z,29.43
2018-07-20T12:49:29.772Z,27.86
2018-07-20T12:51:57.853Z,26.63
2018-07-20T12:54:25.918Z,27.23
2018-07-20T12:56:54.107Z,27.61
2018-07-20T12:59:22.165Z,28.02
2018-07-20T13:01:50.304Z,26.71
2018-07-20T13:04:18.324Z,28.22
2018-07-20T13:06:46.457Z,29.67
2018-07-20T13:09:14.522Z,29.79
2018-07-20T13:11:43.276Z,28.58
2018-07-20T13:14:12.181Z,28.23
2018-07-20T13:16:40.981Z,28.24
2018-07-20T13:19:09.108Z,28.05
2018-07-20T13:21:37.177Z,28.06
2018-07-20T13:24:05.488Z,28.05
2018-07-20T13:26:33.616Z,27.94
2018-07-20T13:29:01.796Z,28.04
2018-07-20T13:31:29.832Z,27.98
2018-07-20T13:33:57.923Z,29.51
2018-07-20T13:36:26.101Z,28.83
2018-07-20T13:38:54.169Z,28.13
2018-07-20T13:41:22.427Z,28.20
2018-07-20T13:43:50.555Z,28.89
2018-07-20T13:46:18.629Z,27.41
2018-07-20T13:48:46.741Z,26.81
2018-07-20T13:51:14.812Z,27.90
2018-07-20T13:53:43.012Z,29.44
2018-07-20T13:56:11.172Z,27.95
2018-07-20T13:58:39.313Z,26.50
2018-07-20T14:01:07.593Z,26.50
2018-07-20T14:03:35.795Z,26.49
2018-07-20T14:06:03.863Z,25.74
2018-07-20T14:08:32.265Z,26.49
2018-07-20T14:11:00.344Z,27.13
2018-07-20T14:13:28.553Z,26.15
2018-07-20T14:15:56.860Z,27.38
2018-07-20T14:18:24.996Z,27.03
2018-07-20T14:20:53.176Z,28.32
2018-07-20T14:23:21.495Z,27.51
2018-07-20T14:25:50.135Z,25.73
2018-07-20T14:28:18.132Z,25.09
2018-07-20T14:30:46.204Z,24.66
2018-07-20T14:33:14.286Z,24.65
2018-07-20T14:35:42.422Z,24.98
2018-07-20T14:38:10.596Z,26.49
2018-07-20T14:40:38.637Z,26.00
2018-07-20T14:43:07.022Z,27.36
2018-07-20T14:45:35.118Z,25.19
2018-07-20T14:48:03.222Z,25.03
2018-07-20T14:50:31.290Z,24.19
2018-07-20T14:52:59.370Z,24.78
2018-07-20T14:55:27.516Z,26.32
2018-07-20T14:57:55.858Z,24.67
2018-07-20T15:00:23.851Z,25.22
2018-07-20T15:02:51.860Z,26.37
2018-07-20T15:05:19.967Z,24.38
2018-07-20T15:07:47.985Z,26.33
2018-07-20T15:10:16.095Z,24.92
2018-07-20T15:12:44.121Z,24.69
2018-07-20T15:15:12.129Z,25.65
2018-07-20T15:17:40.216Z,26.61
2018-07-20T15:20:08.637Z,26.51
2018-07-20T15:22:36.712Z,27.02
2018-07-20T15:25:05.351Z,25.18
2018-07-20T15:27:33.524Z,25.71
2018-07-20T15:30:01.596Z,25.54
2018-07-20T15:32:29.630Z,27.87
2018-07-20T15:34:57.618Z,26.75
2018-07-20T15:37:25.738Z,25.88
2018-07-20T15:39:53.845Z,25.32
2018-07-20T15:42:21.771Z,25.70
2018-07-20T15:44:50.075Z,26.45
2018-07-20T15:47:18.117Z,27.55
2018-07-20T15:49:46.076Z,25.47
2018-07-20T15:54:42.091Z,25.71
2018-07-20T15:57:10.096Z,25.68
2018-07-20T15:59:38.131Z,25.91
2018-07-20T16:02:06.400Z,25.82
2018-07-20T16:04:34.408Z,26.82
2018-07-20T16:07:02.618Z,27.00
2018-07-20T16:09:30.629Z,26.51
2018-07-20T16:11:58.645Z,28.09
2018-07-20T16:14:26.648Z,27.97
2018-07-20T16:16:54.676Z,28.07
2018-07-20T16:19:22.730Z,28.75
2018-07-20T16:21:50.730Z,27.06
2018-07-20T16:24:18.778Z,27.46
2018-07-20T16:26:46.820Z,28.76
2018-07-20T16:29:14.828Z,27.70
2018-07-20T16:31:42.833Z,27.58
2018-07-20T16:34:10.848Z,28.57
2018-07-20T16:36:38.905Z,27.56
2018-07-20T16:39:08.612Z,28.17
2018-07-20T16:41:36.768Z,28.05
2018-07-20T16:44:04.801Z,29.30
2018-07-20T16:46:32.873Z,28.90
2018-07-20T16:49:00.914Z,27.86
2018-07-20T16:51:28.937Z,28.43
2018-07-20T16:53:57.015Z,28.70
2018-07-20T16:56:25.024Z,30.75
2018-07-20T16:58:53.056Z,30.04
2018-07-20T17:01:21.076Z,29.45
2018-07-20T17:03:49.247Z,30.45
2018-07-20T17:06:17.344Z,30.22
2018-07-20T17:08:45.444Z,30.27
2018-07-20T17:11:13.567Z,30.39
2018-07-20T17:13:41.675Z,29.73
2018-07-20T17:16:09.713Z,30.93
2018-07-20T17:18:37.829Z,30.72
2018-07-20T17:21:05.876Z,30.54
2018-07-20T17:23:34.005Z,30.11
2018-07-20T17:26:02.141Z,30.69
2018-07-20T17:28:30.335Z,30.34
2018-07-20T17:30:58.501Z,31.08
2018-07-20T17:33:26.682Z,29.93
2018-07-20T17:35:55.322Z,30.39
2018-07-20T17:38:23.453Z,30.82
2018-07-20T17:40:51.660Z,30.78
2018-07-20T17:43:19.849Z,31.35
2018-07-20T17:45:48.495Z,30.54
2018-07-20T17:48:16.658Z,31.53
2018-07-20T17:50:44.959Z,31.73
2018-07-20T17:53:13.096Z,31.99
2018-07-20T17:55:41.180Z,31.28
2018-07-20T17:58:09.311Z,31.82
2018-07-20T18:00:37.316Z,33.12
2018-07-20T18:03:05.461Z,32.43
2018-07-20T18:05:33.461Z,32.56
2018-07-20T18:08:01.909Z,32.38
2018-07-20T18:10:30.107Z,33.51
2018-07-20T18:12:58.089Z,33.54
2018-07-20T18:15:26.102Z,33.99
2018-07-20T18:17:54.937Z,34.16
2018-07-20T18:20:23.992Z,34.53
2018-07-20T18:22:52.131Z,34.85
2018-07-20T18:25:20.413Z,34.73
2018-07-20T18:27:48.598Z,34.22
2018-07-20T18:30:16.756Z,35.34
2018-07-20T18:32:44.949Z,34.60
2018-07-20T18:35:12.984Z,35.49
2018-07-20T18:37:41.172Z,35.83
2018-07-20T18:40:09.281Z,35.46
2018-07-20T18:42:37.576Z,35.27
2018-07-20T18:45:06.471Z,35.44
2018-07-20T18:47:34.511Z,36.48
2018-07-20T18:50:02.698Z,36.67
2018-07-20T18:52:30.785Z,36.67
2018-07-20T18:54:58.824Z,37.13
2018-07-20T18:57:26.897Z,36.72
2018-07-20T18:59:56.213Z,36.88
2018-07-20T19:02:24.257Z,37.42
2018-07-20T19:04:52.401Z,37.86
2018-07-20T19:07:20.553Z,37.04
2018-07-20T19:09:48.899Z,37.64
2018-07-20T19:12:16.977Z,37.97
2018-07-20T19:14:45.179Z,38.21
2018-07-20T19:17:13.425Z,37.98
2018-07-20T19:19:41.588Z,38.11
2018-07-20T19:22:09.820Z,37.91
2018-07-20T19:24:37.916Z,38.95
2018-07-20T19:27:06.273Z,38.94
2018-07-20T19:29:34.681Z,38.67
2018-07-20T19:32:02.757Z,39.07
2018-07-20T19:34:30.977Z,38.53
2018-07-20T19:36:59.136Z,39.14
2018-07-20T19:39:27.334Z,39.76
2018-07-20T19:41:55.608Z,39.67
2018-07-20T19:44:23.809Z,39.93
2018-07-20T19:46:51.937Z,39.35
2018-07-20T19:49:20.200Z,39.48
2018-07-20T19:51:48.260Z,39.74
2018-07-20T19:54:16.456Z,39.63
2018-07-20T19:56:44.770Z,39.82
2018-07-20T19:59:13.050Z,40.22
2018-07-20T20:01:41.152Z,39.95
2018-07-20T20:04:09.307Z,39.91
2018-07-20T20:06:37.588Z,40.54
2018-07-20T20:09:07.770Z,40.73
2018-07-20T20:11:35.820Z,40.78
2018-07-20T20:14:03.969Z,40.27
2018-07-20T20:16:32.189Z,40.85
2018-07-20T20:19:00.214Z,40.76
2018-07-20T20:21:28.220Z,41.14
2018-07-20T20:23:56.268Z,41.49
2018-07-20T20:26:24.289Z,41.16
2018-07-20T20:28:52.372Z,41.25
2018-07-20T20:31:20.472Z,41.72
2018-07-20T20:33:48.473Z,41.48
2018-07-20T20:36:16.609Z,42.01
2018-07-20T20:38:44.631Z,42.47
2018-07-20T20:41:12.654Z,41.42
2018-07-20T20:43:40.904Z,42.43
2018-07-20T20:46:08.970Z,42.63
2018-07-20T20:48:38.076Z,42.29
2018-07-20T20:51:06.127Z,42.06
2018-07-20T20:53:34.088Z,42.53
2018-07-20T20:56:02.213Z,43.28
2018-07-20T20:58:30.293Z,43.43
2018-07-20T21:00:58.341Z,42.60
2018-07-20T21:03:26.357Z,43.65
2018-07-20T21:05:54.355Z,43.40
2018-07-20T21:08:22.537Z,44.09
2018-07-20T21:10:50.617Z,44.16
2018-07-20T21:13:18.731Z,44.57
2018-07-20T21:15:46.789Z,44.34
2018-07-20T21:18:15.217Z,45.12
2018-07-20T21:20:43.348Z,44.41
2018-07-20T21:23:11.401Z,45.12
2018-07-20T21:25:39.477Z,44.89
2018-07-20T21:28:07.483Z,45.00
2018-07-20T21:30:35.614Z,44.81
2018-07-20T21:33:03.641Z,44.77
2018-07-20T21:35:31.648Z,44.58
2018-07-20T21:37:59.664Z,45.33
2018-07-20T21:40:27.978Z,44.26
2018-07-20T21:42:56.008Z,44.87
2018-07-20T21:45:24.047Z,44.59
2018-07-20T21:47:52.140Z,44.65
2018-07-20T21:50:20.156Z,44.40
2018-07-20T21:52:48.337Z,43.45
2018-07-20T21:55:16.436Z,43.25
2018-07-20T21:57:44.496Z,43.16
2018-07-20T22:00:15.381Z,43.74
2018-07-20T22:02:43.451Z,43.03
2018-07-20T22:05:11.437Z,42.32
2018-07-20T22:07:39.508Z,42.78
2018-07-20T22:10:08.092Z,42.61
2018-07-20T22:12:36.345Z,42.50
2018-07-20T22:15:05.020Z,41.84
2018-07-20T22:17:33.149Z,41.73
2018-07-20T22:20:01.165Z,42.30
2018-07-20T22:22:29.220Z,41.74
2018-07-20T22:24:57.419Z,41.79
2018-07-20T22:27:25.420Z,42.02
2018-07-20T22:29:53.550Z,41.48
2018-07-20T22:32:21.949Z,41.56
2018-07-20T22:34:50.035Z,41.69
2018-07-20T22:37:18.036Z,42.43
2018-07-20T22:39:46.067Z,41.89
2018-07-20T22:42:14.065Z,42.40
2018-07-20T22:44:42.323Z,41.87
2018-07-20T22:47:10.406Z,42.53
2018-07-20T22:49:38.445Z,41.67
2018-07-20T22:52:06.548Z,42.43
2018-07-20T22:54:35.641Z,41.98
2018-07-20T22:57:03.646Z,41.80
2018-07-20T22:59:31.672Z,42.02
2018-07-20T23:01:59.789Z,41.71
2018-07-20T23:04:27.820Z,42.17
2018-07-20T23:06:55.889Z,43.05
2018-07-20T23:09:24.004Z,42.17
2018-07-20T23:11:52.041Z,42.32
2018-07-20T23:14:20.096Z,42.21
2018-07-20T23:16:48.120Z,42.56
2018-07-20T23:19:16.145Z,42.62
2018-07-20T23:21:44.155Z,42.05
2018-07-20T23:24:12.229Z,42.84
2018-07-20T23:26:40.268Z,42.78
2018-07-20T23:29:08.325Z,42.04
2018-07-20T23:31:36.313Z,41.76
2018-07-20T23:34:04.369Z,42.63
2018-07-20T23:36:32.383Z,42.53
2018-07-20T23:39:00.370Z,41.68
2018-07-20T23:41:28.513Z,42.15
2018-07-20T23:43:56.502Z,42.84
2018-07-20T23:46:24.628Z,42.28
2018-07-20T23:48:52.604Z,42.19
2018-07-20T23:51:20.649Z,42.36
2018-07-20T23:53:48.693Z,42.30
2018-07-20T23:56:16.693Z,42.20
2018-07-20T23:58:44.694Z,42.59
